Time;durP1;ratioP1;P1;durP2;ratioP2;P2;SDS_P1;SDS_P2;PMS_P1;PMS_P2;Temp;Humidity;BMP_temperature;BMP_pressure;BME280_temperature;BME280_humidity;BME280_pressure;Samples;Min_cycle;Max_cycle;Signal;HPM_P1;HPM_P2
2024/01/25 00:01:28;;;;;;;15.27;12.80;;;;;;;;;;5007212;23;20108;-93
2024/01/25 00:06:30;;;;;;;14.70;12.23;;;;;;;;;;5340430;23;20266;-90
2024/01/25 00:09:13;;;;;;;16.95;11.77;;;;;;;;;;4873519;29;20037;-96
2024/01/25 00:11:39;;;;;;;13.75;9.85;;;;;;;;;;4872748;29;20044;-90
2024/01/25 00:14:33;;;;;;;15.98;12.25;;;;;;;;;;4877708;29;20102;-92
2024/01/25 00:17:27;;;;;;;15.32;13.93;;;;;;;;;;4857039;29;20028;-96
2024/01/25 00:19:53;;;;;;;17.40;14.73;;;;;;;;;;4916553;23;20136;-89
2024/01/25 00:22:41;;;;;;;18.77;13.75;;;;;;;;;;4888287;29;20100;-96
2024/01/25 00:25:07;;;;;;;18.40;14.27;;;;;;;;;;4890564;29;20080;-89
2024/01/25 00:33:34;;;;;;;16.05;12.05;;;;;;;;;;5657959;23;20040;-95
2024/01/25 00:36:00;;;;;;;17.08;13.43;;;;;;;;;;4901921;23;20518;-87
2024/01/25 00:38:44;;;;;;;15.55;12.65;;;;;;;;;;4889793;29;20056;-96
2024/01/25 00:41:10;;;;;;;15.63;10.88;;;;;;;;;;4893389;23;20060;-89
2024/01/25 00:43:55;;;;;;;13.05;9.98;;;;;;;;;;4887861;29;20538;-96
2024/01/25 00:46:21;;;;;;;18.10;11.90;;;;;;;;;;4856911;29;20029;-89
2024/01/25 00:49:14;;;;;;;13.68;10.45;;;;;;;;;;4858161;29;20033;-89
2024/01/25 00:52:14;;;;;;;10.68;8.73;;;;;;;;;;4811142;29;20034;-96
2024/01/25 00:54:42;;;;;;;14.40;8.35;;;;;;;;;;4843158;29;20500;-88
2024/01/25 00:57:30;;;;;;;14.57;7.88;;;;;;;;;;4881442;29;20057;-96
2024/01/25 00:59:56;;;;;;;15.95;6.43;;;;;;;;;;4902674;23;20060;-87
2024/01/25 01:02:22;;;;;;;16.30;5.40;;;;;;;;;;4886280;29;20135;-88
2024/01/25 01:04:49;;;;;;;11.48;4.30;;;;;;;;;;4887694;29;20032;-87
2024/01/25 01:07:21;;;;;;;13.38;3.90;;;;;;;;;;4886083;29;20486;-88
2024/01/25 01:12:38;;;;;;;15.40;3.80;;;;;;;;;;5136863;23;20061;-96
2024/01/25 01:15:05;;;;;;;13.18;3.85;;;;;;;;;;4867241;29;20033;-90
2024/01/25 01:17:31;;;;;;;11.98;3.83;;;;;;;;;;4875055;29;20588;-89
2024/01/25 01:22:26;;;;;;;13.57;3.42;;;;;;;;;;5675035;23;20063;-89
2024/01/25 01:24:52;;;;;;;9.73;3.40;;;;;;;;;;4904253;23;20092;-89
2024/01/25 01:27:20;;;;;;;13.40;3.25;;;;;;;;;;4880685;29;20072;-89
2024/01/25 01:29:46;;;;;;;15.73;3.42;;;;;;;;;;4891092;29;20535;-89
2024/01/25 01:32:44;;;;;;;12.13;3.38;;;;;;;;;;4872432;29;20020;-96
2024/01/25 01:38:16;;;;;;;9.75;3.08;;;;;;;;;;4896112;29;20081;-89
2024/01/25 01:40:42;;;;;;;14.70;3.38;;;;;;;;;;4924701;23;20068;-88
2024/01/25 01:48:20;;;;;;;13.18;3.35;;;;;;;;;;5717885;23;20502;-88
2024/01/25 01:51:15;;;;;;;13.32;3.05;;;;;;;;;;4881676;29;20028;-96
2024/01/25 01:53:41;;;;;;;11.73;3.75;;;;;;;;;;4858154;29;20033;-88
2024/01/25 01:56:08;;;;;;;13.40;2.70;;;;;;;;;;4845691;29;20073;-88
2024/01/25 01:58:35;;;;;;;18.58;3.83;;;;;;;;;;4845952;29;20068;-88
2024/01/25 02:01:02;;;;;;;9.48;3.75;;;;;;;;;;4845190;29;20033;-88
2024/01/25 02:03:28;;;;;;;13.68;3.72;;;;;;;;;;4861547;29;20022;-88
2024/01/25 02:05:54;;;;;;;14.32;3.28;;;;;;;;;;4844990;29;20125;-88
2024/01/25 02:08:20;;;;;;;11.43;3.30;;;;;;;;;;4845015;29;20029;-90
2024/01/25 02:10:47;;;;;;;13.18;3.03;;;;;;;;;;4864709;24;20045;-88
2024/01/25 02:13:22;;;;;;;11.38;3.08;;;;;;;;;;4869762;29;20029;-96
2024/01/25 02:16:03;;;;;;;16.23;3.55;;;;;;;;;;4842800;29;20087;-95
2024/01/25 02:18:29;;;;;;;14.48;3.67;;;;;;;;;;4844440;29;20034;-89
2024/01/25 02:20:56;;;;;;;13.07;3.78;;;;;;;;;;4880275;29;20049;-88
2024/01/25 02:23:22;;;;;;;13.10;3.58;;;;;;;;;;4868514;29;20052;-88
2024/01/25 02:25:48;;;;;;;12.95;3.70;;;;;;;;;;4868503;29;20032;-88
2024/01/25 02:28:14;;;;;;;13.55;4.07;;;;;;;;;;4858170;29;20128;-88
2024/01/25 02:30:43;;;;;;;14.23;3.40;;;;;;;;;;4848159;29;20037;-88
2024/01/25 02:33:46;;;;;;;14.55;4.20;;;;;;;;;;4847188;29;20036;-96
2024/01/25 02:36:37;;;;;;;14.73;5.05;;;;;;;;;;4850259;29;20030;-96
2024/01/25 02:39:04;;;;;;;18.08;4.68;;;;;;;;;;4848428;29;20022;-88
2024/01/25 02:41:31;;;;;;;12.77;4.35;;;;;;;;;;4866237;29;20037;-88
2024/01/25 02:43:57;;;;;;;16.33;4.32;;;;;;;;;;4850420;29;20029;-87
2024/01/25 02:46:39;;;;;;;13.35;4.40;;;;;;;;;;4852997;29;20028;-96
2024/01/25 02:58:18;;;;;;;7.63;3.45;;;;;;;;;;4904077;23;20130;-87
2024/01/25 03:00:45;;;;;;;15.68;4.63;;;;;;;;;;4866738;29;20482;-87
2024/01/25 03:03:11;;;;;;;12.45;3.53;;;;;;;;;;4883772;29;20044;-88
2024/01/25 03:05:37;;;;;;;12.55;3.95;;;;;;;;;;4903749;29;20390;-88
2024/01/25 03:08:03;;;;;;;13.50;3.47;;;;;;;;;;4885713;29;20035;-88
2024/01/25 03:10:29;;;;;;;11.60;3.72;;;;;;;;;;4884836;29;20128;-88
2024/01/25 03:13:34;;;;;;;14.90;3.60;;;;;;;;;;4888203;29;20036;-96
2024/01/25 03:16:00;;;;;;;;;;;;;;;;;;4885531;29;20032;-87
2024/01/25 03:18:26;;;;;;;12.05;3.80;;;;;;;;;;4886077;29;19911;-88
2024/01/25 03:20:53;;;;;;;15.95;3.97;;;;;;;;;;4885314;29;20051;-89
2024/01/25 03:23:19;;;;;;;11.55;3.63;;;;;;;;;;4886037;29;20052;-87
2024/01/25 03:25:45;;;;;;;11.82;4.25;;;;;;;;;;4906933;23;20036;-87
2024/01/25 03:45:56;;;;;;;9.70;4.18;;;;;;;;;;5071766;23;20067;-88
2024/01/25 03:48:22;;;;;;;11.02;3.83;;;;;;;;;;4878982;29;20048;-89
2024/01/25 03:53:52;;;;;;;11.60;3.55;;;;;;;;;;4902431;29;20080;-89
2024/01/25 03:56:37;;;;;;;16.73;3.05;;;;;;;;;;4868310;29;20088;-96
2024/01/25 03:59:03;;;;;;;11.77;3.05;;;;;;;;;;4876216;29;20036;-89
2024/01/25 04:01:29;;;;;;;12.23;3.40;;;;;;;;;;4884149;29;20052;-88
2024/01/25 04:10:05;;;;;;;15.70;4.10;;;;;;;;;;4933406;23;20024;-89
2024/01/25 04:13:07;;;;;;;12.40;2.95;;;;;;;;;;4877200;29;20065;-96
2024/01/25 04:15:33;;;;;;;12.23;3.00;;;;;;;;;;4868119;29;20470;-89
2024/01/25 04:17:59;;;;;;;8.18;3.00;;;;;;;;;;4881400;29;20119;-88
2024/01/25 04:23:31;;;;;;;13.10;3.15;;;;;;;;;;4896453;29;20096;-89
2024/01/25 04:26:31;;;;;;;9.20;3.17;;;;;;;;;;4868639;29;20037;-96
2024/01/25 04:35:05;;;;;;;13.80;3.80;;;;;;;;;;4910344;23;20095;-88
2024/01/25 04:49:48;;;;;;;15.50;4.00;;;;;;;;;;4922541;23;20124;-88
2024/01/25 04:52:14;;;;;;;12.60;3.30;;;;;;;;;;4873105;29;20036;-89
2024/01/25 04:57:44;;;;;;;12.55;3.80;;;;;;;;;;4894485;23;20056;-88
2024/01/25 05:28:57;;;;;;;19.00;6.97;;;;;;;;;;4894016;29;20115;-87
2024/01/25 05:31:57;;;;;;;10.13;4.63;;;;;;;;;;4897707;29;20028;-93
2024/01/25 05:34:23;;;;;;;15.50;5.53;;;;;;;;;;4904451;23;20056;-89
2024/01/25 05:37:08;;;;;;;15.02;6.13;;;;;;;;;;4881593;29;20041;-96
2024/01/25 05:42:48;;;;;;;14.93;5.20;;;;;;;;;;4924779;23;20056;-95
2024/01/25 05:48:37;;;;;;;14.55;6.05;;;;;;;;;;4880783;29;20033;-96
2024/01/25 05:56:54;;;;;;;12.65;4.15;;;;;;;;;;4904481;23;20069;-95
2024/01/25 06:10:29;;;;;;;14.98;3.38;;;;;;;;;;5414275;23;20148;-88
2024/01/25 06:13:24;;;;;;;15.30;3.53;;;;;;;;;;5148703;23;20510;-96
2024/01/25 06:15:50;;;;;;;14.10;4.30;;;;;;;;;;4900557;29;20039;-91
2024/01/25 06:18:16;;;;;;;10.52;4.22;;;;;;;;;;4883981;29;20088;-88
2024/01/25 06:21:02;;;;;;;15.48;4.32;;;;;;;;;;4882954;29;20043;-96
2024/01/25 06:23:29;;;;;;;11.48;5.40;;;;;;;;;;4893271;29;20052;-88
2024/01/25 06:26:07;;;;;;;18.88;4.55;;;;;;;;;;4908941;23;20069;-90
2024/01/25 06:31:48;;;;;;;12.77;5.07;;;;;;;;;;4882227;29;20079;-89
2024/01/25 06:34:17;;;;;;;15.75;4.90;;;;;;;;;;4880945;29;20414;-88
2024/01/25 06:36:52;;;;;;;16.38;4.55;;;;;;;;;;4881164;29;20123;-94
2024/01/25 06:39:18;;;;;;;11.20;4.78;;;;;;;;;;4876047;29;20060;-89
2024/01/25 06:41:44;;;;;;;17.65;5.93;;;;;;;;;;4878974;29;20037;-88
2024/01/25 06:44:10;;;;;;;17.25;4.53;;;;;;;;;;4871308;29;20487;-88
2024/01/25 06:46:37;;;;;;;17.48;5.32;;;;;;;;;;4880427;29;20044;-89
2024/01/25 06:49:03;;;;;;;13.48;4.60;;;;;;;;;;4879215;29;20037;-87
2024/01/25 06:51:50;;;;;;;12.80;5.28;;;;;;;;;;4880628;29;20013;-89
2024/01/25 06:54:16;;;;;;;16.40;6.55;;;;;;;;;;4895205;29;20030;-89
2024/01/25 06:56:45;;;;;;;16.85;4.57;;;;;;;;;;4887803;29;20037;-96
2024/01/25 06:59:11;;;;;;;13.35;5.32;;;;;;;;;;4884642;29;20097;-88
2024/01/25 07:01:38;;;;;;;12.73;4.75;;;;;;;;;;4883165;29;20041;-89
2024/01/25 07:04:04;;;;;;;14.82;5.80;;;;;;;;;;4880953;29;20116;-88
2024/01/25 07:06:30;;;;;;;15.05;4.43;;;;;;;;;;4863128;29;20037;-88
2024/01/25 07:08:56;;;;;;;16.33;6.20;;;;;;;;;;4887438;29;20046;-88
2024/01/25 07:11:22;;;;;;;13.52;5.28;;;;;;;;;;4882453;29;20402;-91
2024/01/25 07:13:49;;;;;;;12.10;5.53;;;;;;;;;;4884157;29;20032;-89
2024/01/25 07:16:15;;;;;;;12.23;6.10;;;;;;;;;;4882126;29;20065;-90
2024/01/25 07:18:41;;;;;;;19.00;5.13;;;;;;;;;;4882642;29;20031;-90
2024/01/25 07:21:07;;;;;;;13.50;5.53;;;;;;;;;;4875378;29;20127;-90
2024/01/25 07:23:39;;;;;;;16.10;8.10;;;;;;;;;;4872482;29;20040;-90
2024/01/25 07:26:05;;;;;;;14.23;6.55;;;;;;;;;;4880033;29;20060;-90
2024/01/25 07:28:32;;;;;;;14.25;6.80;;;;;;;;;;4875342;29;20478;-90
2024/01/25 07:30:58;;;;;;;19.25;8.85;;;;;;;;;;4875059;29;20055;-90
2024/01/25 07:33:24;;;;;;;15.70;11.55;;;;;;;;;;4883104;29;20494;-91
2024/01/25 07:35:53;;;;;;;16.33;10.38;;;;;;;;;;4887127;29;20055;-90
2024/01/25 07:38:19;;;;;;;14.52;11.30;;;;;;;;;;4910401;23;20032;-90
2024/01/25 07:40:45;;;;;;;18.85;11.23;;;;;;;;;;4866742;29;20101;-90
2024/01/25 07:43:11;;;;;;;17.75;13.52;;;;;;;;;;4867385;29;20483;-91
2024/01/25 07:45:38;;;;;;;19.88;15.95;;;;;;;;;;4869414;29;20025;-89
2024/01/25 07:48:05;;;;;;;21.50;19.33;;;;;;;;;;4884697;29;20089;-92
2024/01/25 07:50:31;;;;;;;19.42;15.70;;;;;;;;;;4886709;29;20057;-91
2024/01/25 07:52:57;;;;;;;22.48;20.58;;;;;;;;;;4886944;29;20029;-91
2024/01/25 07:55:24;;;;;;;17.90;16.17;;;;;;;;;;4887510;29;20071;-95
2024/01/25 07:57:50;;;;;;;25.40;21.23;;;;;;;;;;4887668;29;20127;-94
2024/01/25 08:03:05;;;;;;;23.17;18.75;;;;;;;;;;4884365;29;20048;-90
2024/01/25 08:05:31;;;;;;;17.45;15.68;;;;;;;;;;4881506;29;20390;-90
2024/01/25 08:08:04;;;;;;;19.50;12.93;;;;;;;;;;4886865;29;20135;-96
2024/01/25 08:10:53;;;;;;;15.60;11.80;;;;;;;;;;4887739;29;20036;-91
2024/01/25 08:13:20;;;;;;;18.42;12.13;;;;;;;;;;4884701;29;20100;-90
2024/01/25 08:15:46;;;;;;;14.30;12.23;;;;;;;;;;4890052;29;20041;-89
2024/01/25 08:18:15;;;;;;;16.23;10.95;;;;;;;;;;4889379;29;20108;-89
2024/01/25 08:20:41;;;;;;;12.98;9.23;;;;;;;;;;4884620;29;20075;-90
2024/01/25 08:23:08;;;;;;;14.55;7.53;;;;;;;;;;4890837;29;20069;-89
2024/01/25 08:25:35;;;;;;;12.30;9.10;;;;;;;;;;4887886;29;20024;-89
2024/01/25 08:28:01;;;;;;;12.85;8.50;;;;;;;;;;4892084;29;20013;-89
2024/01/25 08:30:33;;;;;;;15.45;9.85;;;;;;;;;;4886761;29;20060;-96
2024/01/25 08:32:59;;;;;;;12.03;8.87;;;;;;;;;;4872762;29;20029;-89
2024/01/25 08:35:26;;;;;;;13.57;6.93;;;;;;;;;;4887022;29;20020;-89
2024/01/25 08:40:35;;;;;;;14.48;9.40;;;;;;;;;;4977300;23;20057;-91
2024/01/25 08:46:04;;;;;;;16.55;8.85;;;;;;;;;;5824628;23;20037;-89
2024/01/25 08:48:30;;;;;;;16.95;15.23;;;;;;;;;;5584334;23;20023;-88
2024/01/25 08:51:25;;;;;;;23.00;18.35;;;;;;;;;;5336659;23;22097;-95
2024/01/25 08:53:53;;;;;;;27.60;24.80;;;;;;;;;;4857949;29;20037;-89
2024/01/25 08:58:50;;;;;;;26.30;24.00;;;;;;;;;;4885550;29;20037;-89
2024/01/25 09:01:16;;;;;;;37.75;34.72;;;;;;;;;;4987221;23;20130;-91
2024/01/25 09:03:42;;;;;;;32.58;30.20;;;;;;;;;;4885015;29;20044;-91
2024/01/25 09:06:08;;;;;;;13.60;11.90;;;;;;;;;;4886175;29;20386;-90
2024/01/25 09:08:35;;;;;;;13.15;11.65;;;;;;;;;;4884762;29;20393;-91
2024/01/25 09:13:44;;;;;;;19.77;10.88;;;;;;;;;;4880458;29;20041;-90
2024/01/25 09:16:11;;;;;;;14.00;10.77;;;;;;;;;;4865256;29;20500;-89
2024/01/25 09:18:37;;;;;;;17.23;12.02;;;;;;;;;;4986869;23;20119;-89
2024/01/25 09:21:09;;;;;;;16.23;11.40;;;;;;;;;;4883672;23;20053;-89
2024/01/25 09:23:35;;;;;;;12.50;9.65;;;;;;;;;;4866237;29;20132;-92
2024/01/25 09:26:01;;;;;;;12.07;9.43;;;;;;;;;;4904454;23;20022;-90
2024/01/25 09:31:01;;;;;;;15.27;10.07;;;;;;;;;;5051718;23;20040;-91
2024/01/25 09:33:27;;;;;;;18.65;12.02;;;;;;;;;;4868351;29;20505;-88
2024/01/25 09:35:53;;;;;;;19.35;11.48;;;;;;;;;;4895534;23;20419;-91
2024/01/25 09:38:19;;;;;;;14.13;11.32;;;;;;;;;;4893055;29;20025;-90
2024/01/25 09:40:46;;;;;;;14.13;9.70;;;;;;;;;;4883535;29;20395;-90
2024/01/25 09:43:12;;;;;;;14.73;10.68;;;;;;;;;;4888465;29;20136;-90
2024/01/25 09:45:40;;;;;;;15.40;11.15;;;;;;;;;;4884559;29;20031;-90
2024/01/25 09:48:07;;;;;;;14.70;10.55;;;;;;;;;;4883404;29;20043;-89
2024/01/25 09:50:33;;;;;;;17.00;12.13;;;;;;;;;;4880750;29;20033;-90
2024/01/25 09:53:00;;;;;;;16.95;13.15;;;;;;;;;;4867824;29;20478;-89
2024/01/25 09:55:38;;;;;;;18.67;12.93;;;;;;;;;;4887469;23;20048;-95
2024/01/25 09:58:07;;;;;;;14.98;12.75;;;;;;;;;;4875938;29;20036;-90
2024/01/25 10:00:33;;;;;;;13.68;11.52;;;;;;;;;;4882463;29;20387;-89
2024/01/25 10:03:05;;;;;;;16.77;12.25;;;;;;;;;;4878767;29;20048;-94
2024/01/25 10:05:32;;;;;;;16.17;14.57;;;;;;;;;;4872517;29;20028;-89
2024/01/25 10:08:01;;;;;;;21.00;16.17;;;;;;;;;;4871643;29;20029;-88
2024/01/25 10:10:42;;;;;;;16.30;14.52;;;;;;;;;;4886433;23;20086;-89
2024/01/25 10:13:13;;;;;;;16.95;10.82;;;;;;;;;;4870505;29;20132;-90
2024/01/25 10:15:41;;;;;;;14.85;10.50;;;;;;;;;;4864545;29;20422;-91
2024/01/25 10:18:12;;;;;;;15.38;11.77;;;;;;;;;;4873094;29;20044;-89
2024/01/25 10:20:40;;;;;;;16.48;9.50;;;;;;;;;;4886269;29;20036;-88
2024/01/25 10:23:06;;;;;;;13.45;9.90;;;;;;;;;;4914201;23;20043;-88
2024/01/25 10:25:36;;;;;;;13.05;8.93;;;;;;;;;;4864938;29;20041;-88
2024/01/25 10:28:06;;;;;;;13.75;9.55;;;;;;;;;;4866802;29;20017;-89
2024/01/25 10:30:33;;;;;;;15.80;11.77;;;;;;;;;;4866252;29;20036;-88
2024/01/25 10:33:01;;;;;;;15.27;9.20;;;;;;;;;;4883991;29;20375;-88
2024/01/25 10:35:32;;;;;;;12.77;8.93;;;;;;;;;;4883412;29;20024;-89
2024/01/25 10:37:59;;;;;;;16.77;9.85;;;;;;;;;;4883880;29;20135;-90
2024/01/25 10:40:29;;;;;;;13.63;9.45;;;;;;;;;;4881916;29;20020;-95
2024/01/25 10:42:55;;;;;;;16.00;9.02;;;;;;;;;;4846399;29;20540;-89
2024/01/25 10:45:21;;;;;;;12.55;8.77;;;;;;;;;;4845016;29;20124;-89
2024/01/25 10:47:51;;;;;;;14.10;10.48;;;;;;;;;;4848983;29;20040;-90
2024/01/25 10:50:20;;;;;;;15.60;11.90;;;;;;;;;;4881713;29;20093;-96
2024/01/25 10:52:46;;;;;;;14.88;11.38;;;;;;;;;;4873390;29;20096;-89
2024/01/25 10:55:17;;;;;;;15.00;12.18;;;;;;;;;;4868107;29;20032;-91
2024/01/25 10:57:44;;;;;;;18.20;15.18;;;;;;;;;;4882055;29;20020;-90
2024/01/25 11:00:11;;;;;;;16.00;12.10;;;;;;;;;;4878450;29;20031;-89
2024/01/25 11:02:40;;;;;;;15.35;13.43;;;;;;;;;;4866190;29;20049;-88
2024/01/25 11:05:11;;;;;;;14.55;11.63;;;;;;;;;;4866803;29;20029;-88
2024/01/25 11:07:44;;;;;;;15.88;11.00;;;;;;;;;;4880128;29;20032;-90
2024/01/25 11:10:23;;;;;;;13.48;11.07;;;;;;;;;;4876114;29;20100;-89
2024/01/25 11:12:57;;;;;;;15.55;10.88;;;;;;;;;;4866600;29;20137;-89
2024/01/25 11:15:26;;;;;;;;;;;;;;;;;;4884057;29;20029;-89
2024/01/25 11:17:53;;;;;;;18.42;14.27;;;;;;;;;;4866455;29;19908;-89
2024/01/25 11:20:26;;;;;;;19.83;14.93;;;;;;;;;;4898943;29;20051;-88
2024/01/25 11:23:06;;;;;;;15.90;14.27;;;;;;;;;;4866627;29;20049;-89
2024/01/25 11:25:32;;;;;;;14.93;12.48;;;;;;;;;;4864610;29;20042;-88
2024/01/25 11:28:00;;;;;;;14.45;12.90;;;;;;;;;;4862992;29;20075;-87
2024/01/25 11:30:27;;;;;;;18.75;12.18;;;;;;;;;;4849551;29;20057;-88
2024/01/25 11:32:53;;;;;;;13.95;12.38;;;;;;;;;;4860397;29;20029;-88
2024/01/25 11:35:20;;;;;;;18.40;13.52;;;;;;;;;;4866641;29;20514;-94
2024/01/25 11:37:47;;;;;;;18.30;14.85;;;;;;;;;;4855762;29;20170;-92
2024/01/25 11:40:14;;;;;;;17.40;15.57;;;;;;;;;;4848179;29;20034;-89
2024/01/25 11:42:42;;;;;;;17.80;16.10;;;;;;;;;;4864419;29;20034;-88
2024/01/25 11:45:09;;;;;;;17.42;15.75;;;;;;;;;;4848160;29;20376;-89
2024/01/25 11:47:36;;;;;;;16.42;14.93;;;;;;;;;;4849224;29;20044;-89
2024/01/25 11:52:50;;;;;;;17.13;13.90;;;;;;;;;;4884281;29;20074;-94
2024/01/25 11:55:16;;;;;;;20.20;17.98;;;;;;;;;;4866273;29;20402;-89
2024/01/25 11:57:42;;;;;;;14.57;13.07;;;;;;;;;;4866625;29;20025;-89
2024/01/25 12:00:15;;;;;;;18.25;15.18;;;;;;;;;;4864250;29;20030;-94
2024/01/25 12:05:26;;;;;;;18.20;16.48;;;;;;;;;;4887377;29;20032;-85
2024/01/25 12:07:53;;;;;;;15.25;11.02;;;;;;;;;;5075934;23;20067;-87
2024/01/25 12:10:19;;;;;;;18.05;16.23;;;;;;;;;;4869270;29;20036;-90
2024/01/25 12:13:03;;;;;;;18.02;15.73;;;;;;;;;;4870176;29;20055;-95
2024/01/25 12:15:32;;;;;;;17.52;14.23;;;;;;;;;;4865527;29;20052;-87
2024/01/25 12:18:32;;;;;;;13.75;11.93;;;;;;;;;;4873163;29;20509;-95
2024/01/25 12:21:00;;;;;;;31.13;28.63;;;;;;;;;;4824114;29;20044;-88
2024/01/25 12:23:37;;;;;;;29.13;27.02;;;;;;;;;;4884176;29;20064;-88
2024/01/25 12:26:04;;;;;;;31.45;28.80;;;;;;;;;;4883820;29;20542;-88
2024/01/25 12:28:32;;;;;;;35.30;32.47;;;;;;;;;;4867532;29;20029;-87
2024/01/25 12:30:58;;;;;;;41.35;38.55;;;;;;;;;;4866550;29;20033;-87
2024/01/25 12:33:37;;;;;;;39.45;36.47;;;;;;;;;;4866014;29;20112;-94
2024/01/25 12:36:20;;;;;;;45.13;42.10;;;;;;;;;;4866417;29;20073;-95
2024/01/25 12:38:59;;;;;;;41.42;38.33;;;;;;;;;;4882938;29;20043;-96
2024/01/25 12:41:25;;;;;;;41.15;37.65;;;;;;;;;;4881960;29;20048;-87
2024/01/25 12:44:00;;;;;;;43.65;40.67;;;;;;;;;;4876659;29;20092;-95
2024/01/25 12:46:26;;;;;;;39.75;37.20;;;;;;;;;;4883564;29;20047;-87
2024/01/25 12:48:55;;;;;;;40.33;37.13;;;;;;;;;;4868105;29;20044;-91
2024/01/25 12:51:28;;;;;;;44.30;40.60;;;;;;;;;;4866169;29;20390;-96
2024/01/25 12:53:54;;;;;;;;;;;;;;;;;;4866310;29;20064;-90
2024/01/25 12:59:27;;;;;;;38.10;35.10;;;;;;;;;;4869074;29;20570;-92
2024/01/25 13:01:53;;;;;;;47.25;43.78;;;;;;;;;;4881824;29;20043;-91
2024/01/25 13:04:24;;;;;;;43.40;40.13;;;;;;;;;;4887616;29;20359;-92
2024/01/25 13:06:53;;;;;;;36.42;33.70;;;;;;;;;;4886215;29;20028;-89
2024/01/25 13:09:20;;;;;;;40.58;37.63;;;;;;;;;;4882570;29;20056;-91
2024/01/25 13:11:46;;;;;;;35.40;32.83;;;;;;;;;;4886978;29;20061;-92
2024/01/25 13:14:12;;;;;;;44.05;40.63;;;;;;;;;;4876710;29;20032;-89
2024/01/25 13:16:39;;;;;;;42.00;38.83;;;;;;;;;;4905260;29;20028;-91
2024/01/25 13:19:06;;;;;;;40.63;37.22;;;;;;;;;;4870477;29;20029;-89
2024/01/25 13:21:32;;;;;;;42.05;39.25;;;;;;;;;;4884617;29;20048;-90
2024/01/25 13:24:01;;;;;;;47.05;43.45;;;;;;;;;;4884174;29;20036;-96
2024/01/25 13:26:33;;;;;;;45.83;42.38;;;;;;;;;;4876875;29;20024;-95
2024/01/25 13:29:00;;;;;;;38.65;35.67;;;;;;;;;;4886943;29;20037;-89
2024/01/25 13:31:26;;;;;;;34.03;31.38;;;;;;;;;;4866997;29;20076;-90
2024/01/25 13:34:13;;;;;;;38.63;35.88;;;;;;;;;;4868683;29;20156;-96
2024/01/25 13:36:39;;;;;;;33.55;30.95;;;;;;;;;;4861918;29;20480;-90
2024/01/25 13:39:06;;;;;;;38.50;35.75;;;;;;;;;;4870851;29;20037;-90
2024/01/25 13:41:32;;;;;;;42.55;39.50;;;;;;;;;;4884089;29;20036;-91
2024/01/25 13:47:08;;;;;;;34.75;31.48;;;;;;;;;;4865861;29;20060;-96
2024/01/25 13:49:35;;;;;;;32.40;29.95;;;;;;;;;;4871180;29;20025;-90
2024/01/25 13:52:02;;;;;;;32.30;29.58;;;;;;;;;;4895364;29;20013;-88
2024/01/25 13:57:04;;;;;;;34.72;32.00;;;;;;;;;;5779320;23;20064;-89
2024/01/25 13:59:34;;;;;;;34.45;31.98;;;;;;;;;;4880369;29;20631;-95
2024/01/25 14:02:00;;;;;;;29.77;27.48;;;;;;;;;;4867269;29;20049;-89
2024/01/25 14:04:36;;;;;;;37.88;35.03;;;;;;;;;;4872326;29;20057;-93
2024/01/25 14:07:02;;;;;;;35.75;33.20;;;;;;;;;;4867655;29;20487;-90
2024/01/25 14:09:35;;;;;;;37.58;34.78;;;;;;;;;;4866902;29;20085;-96
2024/01/25 14:12:17;;;;;;;;;;;;;;;;;;;;;
2024/01/25 14:14:54;;;;;;;32.17;29.73;;;;;;;;;;4857264;29;20044;-92
2024/01/25 14:17:30;;;;;;;36.22;33.75;;;;;;;;;;4888084;29;20041;-88
2024/01/25 14:19:59;;;;;;;34.78;32.15;;;;;;;;;;4883945;29;20112;-93
2024/01/25 14:22:25;;;;;;;35.50;32.28;;;;;;;;;;4884161;29;20041;-89
2024/01/25 14:24:54;;;;;;;27.58;25.35;;;;;;;;;;4884686;29;20032;-96
2024/01/25 14:27:23;;;;;;;33.25;30.33;;;;;;;;;;4874504;29;20399;-95
2024/01/25 14:29:49;;;;;;;31.08;28.42;;;;;;;;;;4849727;29;20038;-88
2024/01/25 14:32:17;;;;;;;31.65;29.25;;;;;;;;;;4872602;29;20033;-87
2024/01/25 14:34:53;;;;;;;32.88;30.45;;;;;;;;;;4889923;29;20013;-95
2024/01/25 14:37:19;;;;;;;33.75;31.13;;;;;;;;;;5144557;23;20027;-89
2024/01/25 14:39:45;;;;;;;33.63;31.15;;;;;;;;;;5072378;23;20522;-89
2024/01/25 14:42:11;;;;;;;34.75;32.10;;;;;;;;;;5005856;23;20061;-90
2024/01/25 14:44:38;;;;;;;33.92;30.92;;;;;;;;;;4885264;29;20426;-88
2024/01/25 14:47:04;;;;;;;27.92;25.63;;;;;;;;;;4875461;29;20092;-90
2024/01/25 14:49:30;;;;;;;33.83;31.20;;;;;;;;;;4871152;29;20029;-89
2024/01/25 14:52:06;;;;;;;32.17;29.67;;;;;;;;;;4873301;29;20040;-94
2024/01/25 14:54:32;;;;;;;28.80;26.35;;;;;;;;;;4886709;29;20045;-89
2024/01/25 14:56:58;;;;;;;29.40;26.98;;;;;;;;;;4886472;29;20033;-89
2024/01/25 14:59:25;;;;;;;29.70;27.17;;;;;;;;;;4887532;29;20483;-89
2024/01/25 15:01:54;;;;;;;32.58;30.17;;;;;;;;;;4905751;29;20052;-93
2024/01/25 15:04:20;;;;;;;34.35;31.27;;;;;;;;;;4888022;29;20029;-89
2024/01/25 15:06:52;;;;;;;31.73;28.77;;;;;;;;;;4884654;29;20541;-94
2024/01/25 15:09:59;;;;;;;26.77;24.30;;;;;;;;;;4872687;29;20033;-94
2024/01/25 15:12:25;;;;;;;25.13;22.95;;;;;;;;;;4775917;30;20071;-95
2024/01/25 15:15:11;;;;;;;31.55;28.63;;;;;;;;;;4772958;30;20032;-89
2024/01/25 15:18:10;;;;;;;31.60;29.23;;;;;;;;;;4773318;30;20114;-95
2024/01/25 15:20:52;;;;;;;;;;;;;;;;;;;;;
2024/01/25 15:23:44;;;;;;;26.60;24.70;;;;;;;;;;4876069;29;20127;-95
2024/01/25 15:26:19;;;;;;;28.52;26.13;;;;;;;;;;4886546;29;20025;-88
2024/01/25 15:29:08;;;;;;;29.27;26.80;;;;;;;;;;4887801;29;20033;-95
2024/01/25 15:32:01;;;;;;;;;;;;;;;;;;;;;
2024/01/25 15:34:34;;;;;;;30.00;27.40;;;;;;;;;;4882026;29;20043;-95
2024/01/25 15:37:24;;;;;;;29.83;27.48;;;;;;;;;;4998436;23;20056;-93
2024/01/25 15:40:10;;;;;;;27.58;25.02;;;;;;;;;;5010678;24;20067;-87
2024/01/25 15:45:45;;;;;;;24.88;22.75;;;;;;;;;;4891521;29;20039;-94
2024/01/25 15:48:20;;;;;;;28.52;26.13;;;;;;;;;;4920950;29;20032;-94
2024/01/25 15:50:46;;;;;;;28.35;26.02;;;;;;;;;;4918398;29;20470;-89
2024/01/25 15:53:58;;;;;;;31.00;28.45;;;;;;;;;;4921645;29;20037;-93
2024/01/25 15:56:20;;;;;;;33.97;31.27;;;;;;;;;;4862959;29;20026;-93
2024/01/25 15:58:56;;;;;;;27.17;25.00;;;;;;;;;;4903705;29;20047;-93
2024/01/25 16:01:26;;;;;;;25.42;23.27;;;;;;;;;;4881348;29;20069;-91
2024/01/25 16:03:55;;;;;;;31.05;28.45;;;;;;;;;;4866491;29;20049;-94
2024/01/25 16:06:25;;;;;;;25.85;24.05;;;;;;;;;;4870360;29;20625;-96
2024/01/25 16:08:57;;;;;;;27.95;25.30;;;;;;;;;;4867251;29;20084;-91
2024/01/25 16:11:23;;;;;;;27.55;24.92;;;;;;;;;;4871248;29;20522;-88
2024/01/25 16:13:49;;;;;;;29.13;26.98;;;;;;;;;;4875771;29;20040;-90
2024/01/25 16:16:16;;;;;;;31.73;28.90;;;;;;;;;;4875217;29;20052;-90
2024/01/25 16:18:46;;;;;;;34.10;31.15;;;;;;;;;;4869460;29;20129;-90
2024/01/25 16:21:12;;;;;;;30.10;27.60;;;;;;;;;;4904555;23;20052;-90
2024/01/25 16:23:38;;;;;;;26.45;24.08;;;;;;;;;;4871967;29;20085;-89
2024/01/25 16:26:04;;;;;;;28.45;25.80;;;;;;;;;;5178685;23;20049;-89
2024/01/25 16:28:35;;;;;;;26.10;23.58;;;;;;;;;;4867977;29;20147;-96
2024/01/25 16:31:11;;;;;;;30.88;28.65;;;;;;;;;;4866272;29;20029;-94
2024/01/25 16:33:37;;;;;;;35.35;32.33;;;;;;;;;;4884520;29;20048;-91
2024/01/25 16:36:03;;;;;;;29.42;26.80;;;;;;;;;;4901673;29;20066;-96
2024/01/25 16:38:32;;;;;;;27.25;23.88;;;;;;;;;;4884563;29;20024;-89
2024/01/25 16:41:08;;;;;;;30.02;27.65;;;;;;;;;;4884195;29;20037;-94
2024/01/25 16:43:37;;;;;;;27.63;25.42;;;;;;;;;;4885061;29;20041;-96
2024/01/25 16:46:06;;;;;;;30.10;27.83;;;;;;;;;;4883733;29;20053;-88
2024/01/25 16:48:32;;;;;;;25.35;21.90;;;;;;;;;;4892627;29;20044;-88
2024/01/25 16:50:58;;;;;;;29.60;27.27;;;;;;;;;;4865740;29;20180;-95
2024/01/25 16:53:30;;;;;;;27.15;24.83;;;;;;;;;;4880856;29;20040;-96
2024/01/25 16:56:31;;;;;;;28.55;26.20;;;;;;;;;;4885654;29;20385;-88
2024/01/25 16:59:00;;;;;;;34.03;31.30;;;;;;;;;;4834121;29;20541;-95
2024/01/25 17:01:29;;;;;;;26.33;24.08;;;;;;;;;;4884373;29;20509;-89
2024/01/25 17:03:58;;;;;;;32.53;29.75;;;;;;;;;;4884310;29;20486;-96
2024/01/25 17:06:24;;;;;;;33.42;30.83;;;;;;;;;;4884388;29;20104;-94
2024/01/25 17:08:50;;;;;;;27.92;25.63;;;;;;;;;;4883984;29;20036;-96
2024/01/25 17:11:16;;;;;;;24.55;22.55;;;;;;;;;;4873257;29;20033;-89
2024/01/25 17:13:42;;;;;;;29.10;26.40;;;;;;;;;;4885454;29;20487;-91
2024/01/25 17:16:08;;;;;;;27.88;25.15;;;;;;;;;;4882610;29;20052;-89
2024/01/25 17:18:41;;;;;;;26.23;24.13;;;;;;;;;;4887379;29;20052;-94
2024/01/25 17:23:57;;;;;;;29.65;26.83;;;;;;;;;;3548211;23;20023;-86
2024/01/25 17:26:45;;;;;;;29.90;27.10;;;;;;;;;;4871981;29;20422;-94
2024/01/25 17:29:11;;;;;;;30.60;28.40;;;;;;;;;;4890816;29;20037;-89
2024/01/25 17:34:43;;;;;;;29.67;27.08;;;;;;;;;;4904790;29;20029;-90
2024/01/25 17:39:57;;;;;;;30.35;28.20;;;;;;;;;;4900180;29;20081;-95
2024/01/25 17:42:34;;;;;;;23.67;21.70;;;;;;;;;;4888824;29;20047;-88
2024/01/25 17:45:41;;;;;;;30.10;27.48;;;;;;;;;;4877151;29;20033;-95
2024/01/25 17:48:32;;;;;;;31.02;28.55;;;;;;;;;;5217639;23;20045;-96